createdAt,value
2022-09-27T00:01:02.829Z,10.68
2022-09-27T00:02:06.080Z,10.85
2022-09-27T00:03:11.836Z,9.63
2022-09-27T00:04:14.939Z,9.80
2022-09-27T00:05:18.578Z,10.55
2022-09-27T00:06:32.234Z,9.25
2022-09-27T00:07:35.299Z,11.48
2022-09-27T00:08:38.255Z,10.70
2022-09-27T00:09:41.325Z,10.50
2022-09-27T00:10:44.682Z,10.32
2022-09-27T00:11:47.863Z,11.05
2022-09-27T00:12:52.139Z,10.25
2022-09-27T00:13:59.842Z,11.07
2022-09-27T00:15:03.805Z,11.07
2022-09-27T00:16:07.820Z,11.75
2022-09-27T00:17:10.997Z,11.38
2022-09-27T00:18:14.006Z,11.10
2022-09-27T00:19:23.777Z,10.88
2022-09-27T00:20:26.781Z,11.07
2022-09-27T00:21:31.193Z,11.48
2022-09-27T00:22:34.850Z,11.20
2022-09-27T00:23:38.687Z,11.52
2022-09-27T00:24:41.648Z,12.13
2022-09-27T00:25:59.186Z,10.85
2022-09-27T00:27:02.465Z,11.95
2022-09-27T00:28:05.285Z,11.48
2022-09-27T00:29:10.476Z,10.77
2022-09-27T00:30:14.369Z,11.60
2022-09-27T00:31:30.329Z,11.13
2022-09-27T00:32:33.517Z,11.93
2022-09-27T00:33:36.513Z,12.48
2022-09-27T00:34:40.226Z,11.73
2022-09-27T00:35:44.200Z,11.57
2022-09-27T00:36:48.133Z,11.40
2022-09-27T00:37:51.234Z,11.35
2022-09-27T00:38:54.558Z,11.55
2022-09-27T00:39:57.953Z,11.13
2022-09-27T00:41:01.071Z,12.05
2022-09-27T00:42:04.196Z,11.50
2022-09-27T00:43:23.276Z,12.10
2022-09-27T00:44:29.255Z,11.32
2022-09-27T00:45:32.267Z,13.00
2022-09-27T00:46:44.216Z,11.63
2022-09-27T00:48:07.577Z,11.65
2022-09-27T00:49:34.958Z,11.60
2022-09-27T00:50:46.852Z,10.23
2022-09-27T00:52:13.290Z,11.25
2022-09-27T00:53:21.670Z,9.73
2022-09-27T00:54:28.448Z,10.38
2022-09-27T00:55:38.574Z,11.20
2022-09-27T00:56:43.947Z,9.93
2022-09-27T00:57:48.698Z,10.68
2022-09-27T00:59:02.052Z,10.68
2022-09-27T01:00:12.435Z,9.75
2022-09-27T01:01:15.558Z,11.15
2022-09-27T01:02:19.440Z,10.82
2022-09-27T01:03:51.518Z,10.82
2022-09-27T01:04:55.863Z,10.57
2022-09-27T01:06:00.773Z,10.90
2022-09-27T01:07:04.449Z,11.38
2022-09-27T01:08:07.820Z,11.50
2022-09-27T01:09:11.959Z,10.95
2022-09-27T01:10:17.392Z,10.90
2022-09-27T01:11:49.546Z,12.05
2022-09-27T01:13:20.681Z,11.10
2022-09-27T01:15:58.676Z,10.13
2022-09-27T01:17:31.811Z,11.07
2022-09-27T01:18:57.191Z,12.57
2022-09-27T01:20:21.407Z,12.00
2022-09-27T01:22:01.458Z,11.20
2022-09-27T01:24:07.210Z,12.10
2022-09-27T01:25:19.334Z,11.18
2022-09-27T01:26:38.071Z,12.18
2022-09-27T01:28:09.049Z,11.73
2022-09-27T01:29:30.226Z,11.60
2022-09-27T01:31:13.688Z,13.23
2022-09-27T01:32:24.574Z,11.00
2022-09-27T01:33:58.629Z,11.45
2022-09-27T01:35:15.413Z,11.27
2022-09-27T01:36:47.736Z,10.68
2022-09-27T01:38:24.078Z,11.00
2022-09-27T01:39:44.387Z,12.18
2022-09-27T01:41:20.718Z,11.10
2022-09-27T01:43:06.786Z,10.85
2022-09-27T01:44:35.883Z,10.90
2022-09-27T01:45:56.323Z,11.93
2022-09-27T01:47:55.649Z,10.77
2022-09-27T01:49:40.749Z,10.63
2022-09-27T01:51:10.599Z,11.70
2022-09-27T01:52:20.968Z,10.63
2022-09-27T01:53:43.167Z,11.60
2022-09-27T01:55:03.015Z,11.32
2022-09-27T01:56:50.606Z,11.15
2022-09-27T01:58:25.983Z,10.73
2022-09-27T01:59:29.870Z,10.85
2022-09-27T02:00:55.857Z,11.20
2022-09-27T02:02:08.391Z,11.05
2022-09-27T02:03:44.768Z,11.57
2022-09-27T02:05:11.684Z,11.25
2022-09-27T02:06:43.494Z,11.23
2022-09-27T02:08:05.128Z,11.75
2022-09-27T02:09:24.247Z,11.80
2022-09-27T02:10:41.886Z,10.75
2022-09-27T02:13:07.167Z,10.38
2022-09-27T02:14:30.481Z,11.50
2022-09-27T02:16:05.884Z,12.18
2022-09-27T02:17:39.993Z,10.80
2022-09-27T02:19:39.531Z,11.77
2022-09-27T02:20:52.518Z,10.38
2022-09-27T02:22:35.092Z,10.73
2022-09-27T02:24:03.312Z,10.93
2022-09-27T02:25:29.320Z,11.10
2022-09-27T02:26:47.151Z,11.55
2022-09-27T02:28:03.735Z,10.27
2022-09-27T02:29:14.958Z,10.50
2022-09-27T02:30:24.498Z,11.20
2022-09-27T02:31:35.303Z,10.57
2022-09-27T02:32:39.977Z,11.40
2022-09-27T02:33:54.657Z,10.77
2022-09-27T02:35:04.717Z,11.20
2022-09-27T02:36:09.254Z,10.45
2022-09-27T02:37:12.369Z,10.77
2022-09-27T02:38:15.944Z,10.80
2022-09-27T02:39:19.117Z,12.18
2022-09-27T02:40:29.997Z,10.68
2022-09-27T02:41:33.285Z,11.63
2022-09-27T02:42:37.117Z,12.13
2022-09-27T02:43:40.368Z,11.23
2022-09-27T02:44:44.583Z,11.10
2022-09-27T02:45:47.840Z,11.13
2022-09-27T02:47:02.750Z,11.70
2022-09-27T02:48:53.954Z,11.55
2022-09-27T02:50:11.571Z,11.55
2022-09-27T02:52:01.537Z,10.60
2022-09-27T02:53:39.505Z,11.40
2022-09-27T02:55:42.952Z,11.65
2022-09-27T02:57:35.571Z,11.02
2022-09-27T02:59:39.846Z,12.75
2022-09-27T03:01:28.122Z,10.73
2022-09-27T03:03:08.421Z,10.48
2022-09-27T03:04:31.740Z,11.27
2022-09-27T03:05:49.000Z,10.85
2022-09-27T03:06:55.146Z,12.40
2022-09-27T03:07:58.429Z,11.30
2022-09-27T03:09:01.939Z,12.57
2022-09-27T03:10:06.593Z,11.57
2022-09-27T03:11:09.661Z,11.50
2022-09-27T03:12:13.158Z,11.20
2022-09-27T03:13:16.348Z,11.30
2022-09-27T03:14:20.458Z,11.00
2022-09-27T03:15:46.289Z,10.77
2022-09-27T03:16:55.159Z,11.40
2022-09-27T03:18:27.366Z,11.30
2022-09-27T03:20:02.808Z,10.23
2022-09-27T03:21:24.062Z,10.65
2022-09-27T03:22:27.102Z,11.45
2022-09-27T03:23:30.385Z,11.55
2022-09-27T03:24:34.458Z,12.27
2022-09-27T03:25:37.520Z,10.77
2022-09-27T03:26:40.465Z,11.77
2022-09-27T03:27:44.398Z,13.10
2022-09-27T03:28:47.548Z,12.10
2022-09-27T03:29:50.535Z,12.27
2022-09-27T03:30:53.697Z,12.25
2022-09-27T03:32:28.711Z,11.55
2022-09-27T03:33:40.836Z,11.00
2022-09-27T03:34:47.749Z,9.85
2022-09-27T03:35:51.061Z,12.10
2022-09-27T03:36:54.089Z,12.05
2022-09-27T03:37:57.213Z,12.82
2022-09-27T03:39:00.288Z,12.13
2022-09-27T03:40:03.684Z,11.65
2022-09-27T03:41:06.879Z,11.75
2022-09-27T03:42:09.859Z,11.50
2022-09-27T03:43:15.527Z,11.45
2022-09-27T03:44:21.288Z,12.20
2022-09-27T03:45:24.950Z,13.25
2022-09-27T03:46:28.301Z,12.80
2022-09-27T03:47:31.496Z,13.52
2022-09-27T03:48:34.477Z,14.93
2022-09-27T03:49:38.053Z,14.70
2022-09-27T03:50:41.274Z,15.65
2022-09-27T03:51:44.370Z,14.18
2022-09-27T03:52:47.642Z,13.50
2022-09-27T03:53:51.220Z,18.02
2022-09-27T03:54:58.417Z,17.33
2022-09-27T03:56:04.612Z,17.13
2022-09-27T03:57:07.749Z,18.30
2022-09-27T03:58:11.305Z,18.35
2022-09-27T03:59:14.947Z,17.48
2022-09-27T04:00:50.072Z,17.95
2022-09-27T04:01:53.089Z,16.77
2022-09-27T04:03:17.652Z,16.65
2022-09-27T04:04:39.072Z,16.42
2022-09-27T04:05:42.039Z,16.45
2022-09-27T04:06:50.495Z,16.80
2022-09-27T04:07:53.661Z,17.23
2022-09-27T04:08:56.691Z,18.27
2022-09-27T04:10:07.091Z,20.45
2022-09-27T04:11:11.891Z,19.08
2022-09-27T04:12:17.267Z,20.00
2022-09-27T04:13:21.234Z,18.08
2022-09-27T04:14:30.056Z,19.35
2022-09-27T04:15:53.177Z,18.40
2022-09-27T04:17:14.679Z,19.50
2022-09-27T04:18:40.276Z,19.13
2022-09-27T04:19:49.353Z,19.02
2022-09-27T04:20:53.010Z,17.50
2022-09-27T04:21:57.795Z,19.67
2022-09-27T04:23:00.697Z,19.75
2022-09-27T04:24:05.376Z,19.42
2022-09-27T04:25:09.970Z,18.95
2022-09-27T04:26:15.186Z,18.48
2022-09-27T04:27:25.252Z,19.38
2022-09-27T04:28:29.979Z,18.23
2022-09-27T04:29:33.012Z,19.98
2022-09-27T04:30:50.836Z,19.55
2022-09-27T04:32:13.757Z,19.55
2022-09-27T04:33:48.734Z,19.73
2022-09-27T04:35:19.785Z,19.20
2022-09-27T04:36:26.713Z,17.85
2022-09-27T04:37:49.867Z,17.88
2022-09-27T04:38:55.741Z,19.80
2022-09-27T04:39:58.850Z,18.42
2022-09-27T04:41:02.144Z,21.50
2022-09-27T04:42:09.795Z,20.00
2022-09-27T04:43:12.866Z,18.27
2022-09-27T04:44:18.714Z,19.73
2022-09-27T04:45:26.069Z,17.75
2022-09-27T04:46:34.200Z,20.40
2022-09-27T04:47:44.256Z,17.67
2022-09-27T04:48:48.476Z,19.00
2022-09-27T04:49:51.694Z,18.83
2022-09-27T04:51:02.683Z,19.33
2022-09-27T04:52:06.165Z,19.58
2022-09-27T04:53:15.247Z,18.83
2022-09-27T04:54:18.291Z,19.33
2022-09-27T04:55:29.761Z,18.35
2022-09-27T04:56:32.704Z,18.67
2022-09-27T04:57:37.102Z,17.13
2022-09-27T04:58:40.699Z,18.23
2022-09-27T04:59:44.364Z,17.45
2022-09-27T05:00:49.266Z,17.70
2022-09-27T05:02:15.859Z,16.95
2022-09-27T05:03:42.141Z,16.35
2022-09-27T05:04:49.900Z,17.10
2022-09-27T05:05:55.702Z,17.48
2022-09-27T05:06:58.660Z,18.52
2022-09-27T05:08:11.343Z,16.98
2022-09-27T05:09:43.656Z,17.95
2022-09-27T05:10:47.455Z,18.08
2022-09-27T05:11:50.282Z,17.35
2022-09-27T05:12:53.130Z,18.48
2022-09-27T05:13:56.096Z,17.25
2022-09-27T05:15:00.313Z,16.17
2022-09-27T05:16:22.169Z,15.73
2022-09-27T05:17:44.297Z,14.90
2022-09-27T05:19:03.945Z,14.88
2022-09-27T05:20:25.917Z,14.90
2022-09-27T05:21:31.990Z,15.20
2022-09-27T05:22:34.988Z,14.77
2022-09-27T05:23:37.783Z,14.90
2022-09-27T05:24:41.041Z,13.23
2022-09-27T05:25:44.046Z,13.40
2022-09-27T05:26:48.100Z,14.35
2022-09-27T05:27:51.321Z,12.90
2022-09-27T05:28:55.183Z,14.07
2022-09-27T05:30:00.570Z,14.90
2022-09-27T05:31:13.486Z,13.20
2022-09-27T05:32:17.075Z,14.05
2022-09-27T05:33:22.415Z,15.68
2022-09-27T05:34:25.794Z,14.88
2022-09-27T05:35:35.920Z,13.43
2022-09-27T05:36:39.921Z,13.88
2022-09-27T05:37:50.940Z,13.88
2022-09-27T05:38:54.266Z,14.60
2022-09-27T05:39:58.566Z,14.68
2022-09-27T05:41:01.709Z,14.98
2022-09-27T05:42:07.389Z,13.80
2022-09-27T05:43:10.584Z,13.68
2022-09-27T05:44:14.020Z,13.57
2022-09-27T05:46:30.539Z,13.35
2022-09-27T05:47:33.957Z,14.13
2022-09-27T05:48:37.772Z,13.70
2022-09-27T05:49:43.273Z,14.35
2022-09-27T05:50:48.278Z,14.45
2022-09-27T05:51:51.224Z,14.60
2022-09-27T05:52:55.456Z,13.25
2022-09-27T05:53:59.612Z,13.77
2022-09-27T05:55:05.268Z,14.52
2022-09-27T05:56:09.271Z,13.95
2022-09-27T05:57:32.316Z,13.00
2022-09-27T05:58:40.422Z,12.73
2022-09-27T05:59:50.617Z,12.70
2022-09-27T06:00:56.324Z,12.98
2022-09-27T06:02:38.001Z,13.85
2022-09-27T06:04:05.802Z,12.95
2022-09-27T06:05:30.540Z,12.85
2022-09-27T06:06:59.371Z,12.02
2022-09-27T06:08:11.362Z,12.32
2022-09-27T06:09:19.505Z,13.00
2022-09-27T06:10:24.010Z,13.95
2022-09-27T06:11:27.764Z,13.00
2022-09-27T06:12:31.367Z,12.82
2022-09-27T06:13:39.383Z,13.20
2022-09-27T06:14:42.372Z,12.90
2022-09-27T06:15:52.946Z,12.23
2022-09-27T06:16:56.196Z,13.00
2022-09-27T06:18:06.610Z,12.52
2022-09-27T06:19:10.989Z,12.38
2022-09-27T06:20:14.621Z,13.10
2022-09-27T06:21:17.648Z,12.02
2022-09-27T06:22:28.116Z,13.18
2022-09-27T06:23:35.828Z,12.90
2022-09-27T06:24:47.904Z,13.15
2022-09-27T06:26:06.362Z,13.33
2022-09-27T06:27:35.580Z,13.43
2022-09-27T06:28:44.834Z,14.63
2022-09-27T06:29:47.841Z,12.73
2022-09-27T06:31:08.294Z,14.60
2022-09-27T06:32:23.856Z,13.20
2022-09-27T06:33:35.091Z,13.77
2022-09-27T06:34:39.530Z,13.75
2022-09-27T06:35:45.440Z,15.80
2022-09-27T06:36:51.499Z,14.20
2022-09-27T06:37:55.847Z,13.65
2022-09-27T06:39:03.293Z,15.88
2022-09-27T06:40:10.170Z,15.90
2022-09-27T06:41:28.219Z,15.68
2022-09-27T06:42:52.058Z,16.92
2022-09-27T06:44:13.264Z,17.52
2022-09-27T06:45:36.389Z,16.85
2022-09-27T06:47:02.059Z,15.07
2022-09-27T06:48:25.826Z,16.02
2022-09-27T06:49:42.388Z,15.80
2022-09-27T06:50:47.902Z,16.15
2022-09-27T06:51:52.517Z,16.70
2022-09-27T06:52:57.584Z,16.67
2022-09-27T06:54:01.457Z,17.25
2022-09-27T06:55:05.843Z,17.75
2022-09-27T06:56:10.148Z,16.95
2022-09-27T06:57:47.448Z,15.05
2022-09-27T06:59:10.817Z,16.50
2022-09-27T07:00:29.296Z,15.85
2022-09-27T07:01:52.900Z,16.90
2022-09-27T07:03:02.332Z,17.58
2022-09-27T07:04:25.587Z,17.73
2022-09-27T07:06:04.952Z,16.92
2022-09-27T07:07:23.113Z,17.05
2022-09-27T07:08:28.842Z,17.58
2022-09-27T07:09:32.141Z,18.17
2022-09-27T07:10:37.814Z,20.02
2022-09-27T07:11:42.246Z,16.98
2022-09-27T07:12:48.901Z,18.35
2022-09-27T07:13:52.785Z,18.05
2022-09-27T07:14:56.485Z,18.25
2022-09-27T07:16:00.004Z,17.27
2022-09-27T07:17:02.944Z,17.77
2022-09-27T07:18:18.376Z,18.35
2022-09-27T07:19:21.211Z,18.73
2022-09-27T07:20:27.063Z,17.52
2022-09-27T07:21:29.980Z,17.35
2022-09-27T07:22:32.953Z,17.73
2022-09-27T07:23:39.586Z,17.15
2022-09-27T07:24:44.301Z,18.40
2022-09-27T07:25:48.396Z,19.08
2022-09-27T07:26:51.426Z,19.25
2022-09-27T07:28:03.612Z,19.98
2022-09-27T07:29:06.655Z,18.88
2022-09-27T07:30:12.052Z,18.52
2022-09-27T07:31:15.013Z,18.55
2022-09-27T07:32:17.958Z,20.77
2022-09-27T07:33:21.012Z,19.13
2022-09-27T07:34:24.765Z,19.10
2022-09-27T07:35:30.480Z,19.98
2022-09-27T07:36:33.651Z,21.65
2022-09-27T07:37:38.322Z,20.42
2022-09-27T07:38:41.963Z,21.60
2022-09-27T07:39:45.663Z,19.50
2022-09-27T07:40:49.600Z,21.05
2022-09-27T07:41:53.187Z,19.88
2022-09-27T07:42:58.370Z,20.60
2022-09-27T07:44:02.187Z,20.45
2022-09-27T07:45:09.780Z,21.73
2022-09-27T07:46:31.416Z,21.55
2022-09-27T07:47:53.110Z,20.17
2022-09-27T07:49:14.934Z,21.35
2022-09-27T07:50:18.185Z,24.15
2022-09-27T07:51:29.336Z,21.17
2022-09-27T07:52:45.079Z,20.42
2022-09-27T07:54:11.216Z,20.92
2022-09-27T07:55:24.635Z,18.95
2022-09-27T07:56:46.094Z,21.17
2022-09-27T07:57:51.067Z,20.90
2022-09-27T07:58:54.225Z,20.92
2022-09-27T07:59:57.362Z,21.55
2022-09-27T08:01:01.352Z,21.05
2022-09-27T08:02:04.743Z,24.25
2022-09-27T08:03:12.088Z,20.92
2022-09-27T08:04:15.281Z,23.35
2022-09-27T08:05:18.432Z,20.92
2022-09-27T08:06:21.591Z,21.67
2022-09-27T08:07:25.107Z,20.98
2022-09-27T08:08:30.648Z,21.73
2022-09-27T08:09:34.778Z,22.33
2022-09-27T08:10:39.889Z,21.52
2022-09-27T08:11:44.956Z,20.05
2022-09-27T08:12:49.319Z,23.52
2022-09-27T08:13:52.721Z,21.95
2022-09-27T08:15:01.591Z,22.27
2022-09-27T08:16:04.758Z,21.10
2022-09-27T08:17:24.767Z,21.48
2022-09-27T08:19:02.894Z,21.85
2022-09-27T08:20:18.014Z,20.45
2022-09-27T08:21:40.723Z,20.52
2022-09-27T08:22:53.256Z,21.00
2022-09-27T08:24:07.218Z,20.63
2022-09-27T08:25:30.614Z,20.67
2022-09-27T08:26:43.239Z,20.92
2022-09-27T08:28:04.503Z,21.42
2022-09-27T08:29:25.881Z,21.52
2022-09-27T08:30:32.510Z,22.67
2022-09-27T08:31:37.106Z,21.70
2022-09-27T08:32:40.131Z,22.20
2022-09-27T08:33:43.413Z,20.13
2022-09-27T08:34:47.233Z,18.17
2022-09-27T08:35:50.076Z,18.88
2022-09-27T08:36:53.677Z,19.63
2022-09-27T08:37:59.920Z,19.52
2022-09-27T08:39:05.109Z,18.98
2022-09-27T08:40:17.792Z,17.67
2022-09-27T08:41:39.451Z,18.98
2022-09-27T08:43:01.318Z,17.60
2022-09-27T08:44:38.189Z,17.27
2022-09-27T08:46:15.122Z,15.93
2022-09-27T08:47:25.179Z,15.82
2022-09-27T08:48:31.357Z,15.70
2022-09-27T08:49:41.759Z,16.45
2022-09-27T08:50:47.030Z,15.77
2022-09-27T08:51:53.641Z,15.70
2022-09-27T08:53:03.818Z,15.57
2022-09-27T08:54:31.594Z,14.88
2022-09-27T08:55:51.912Z,14.63
2022-09-27T08:57:25.592Z,14.15
2022-09-27T08:58:53.091Z,13.93
2022-09-27T09:01:17.057Z,13.50
2022-09-27T09:02:30.009Z,14.30
2022-09-27T09:03:40.942Z,13.90
2022-09-27T09:06:36.380Z,14.07
2022-09-27T09:08:19.570Z,14.18
2022-09-27T09:09:30.154Z,14.15
2022-09-27T09:11:55.699Z,14.02
2022-09-27T09:13:09.560Z,13.20
2022-09-27T09:15:04.300Z,13.10
2022-09-27T09:16:16.425Z,12.50
2022-09-27T09:18:09.806Z,15.00
2022-09-27T09:19:38.214Z,8.48
2022-09-27T09:21:21.513Z,13.30
2022-09-27T09:22:51.461Z,13.20
2022-09-27T09:24:06.862Z,14.20
2022-09-27T09:25:42.144Z,13.88
2022-09-27T09:26:59.957Z,12.73
2022-09-27T09:28:51.976Z,12.43
2022-09-27T09:30:10.046Z,11.95
2022-09-27T09:31:42.464Z,12.73
2022-09-27T09:33:23.120Z,14.05
2022-09-27T09:34:36.835Z,13.63
2022-09-27T09:36:14.023Z,14.25
2022-09-27T09:37:31.024Z,12.02
2022-09-27T09:38:49.548Z,12.57
2022-09-27T09:40:09.322Z,13.05
2022-09-27T09:41:22.920Z,11.75
2022-09-27T09:42:35.913Z,10.95
2022-09-27T09:43:50.214Z,11.55
2022-09-27T09:45:04.579Z,11.38
2022-09-27T09:46:19.401Z,10.65
2022-09-27T09:47:36.114Z,10.38
2022-09-27T09:49:01.871Z,11.25
2022-09-27T09:50:27.510Z,10.65
2022-09-27T09:51:43.501Z,11.18
2022-09-27T09:52:55.462Z,10.63
2022-09-27T09:54:07.893Z,10.57
2022-09-27T09:55:33.873Z,9.68
2022-09-27T09:56:47.888Z,10.88
2022-09-27T09:58:22.177Z,10.48
2022-09-27T09:59:38.575Z,11.02
2022-09-27T10:00:43.431Z,10.25
2022-09-27T10:01:48.555Z,10.75
2022-09-27T10:02:59.157Z,11.60
2022-09-27T10:04:03.640Z,9.50
2022-09-27T10:05:10.184Z,10.23
2022-09-27T10:06:14.676Z,10.63
2022-09-27T10:07:23.791Z,9.98
2022-09-27T10:08:27.049Z,9.35
2022-09-27T10:09:55.690Z,9.63
2022-09-27T10:11:32.727Z,9.32
2022-09-27T10:13:22.044Z,9.48
2022-09-27T10:14:30.771Z,9.18
2022-09-27T10:15:38.248Z,10.23
2022-09-27T10:16:50.640Z,10.35
2022-09-27T10:17:58.090Z,9.73
2022-09-27T10:19:05.297Z,9.85
2022-09-27T10:20:34.126Z,9.60
2022-09-27T10:21:45.293Z,9.80
2022-09-27T10:22:55.529Z,9.15
2022-09-27T10:24:19.848Z,9.50
2022-09-27T10:25:58.731Z,8.75
2022-09-27T10:27:22.911Z,9.90
2022-09-27T10:28:42.177Z,9.40
2022-09-27T10:29:45.381Z,9.80
2022-09-27T10:30:58.404Z,9.88
2022-09-27T10:32:19.869Z,9.50
2022-09-27T10:33:23.822Z,9.15
2022-09-27T10:34:38.638Z,9.43
2022-09-27T10:35:47.010Z,9.55
2022-09-27T10:37:19.382Z,9.30
2022-09-27T10:38:38.501Z,8.75
2022-09-27T10:39:58.979Z,9.70
2022-09-27T10:41:36.884Z,10.45
2022-09-27T10:42:46.863Z,9.20
2022-09-27T10:43:49.927Z,9.60
2022-09-27T10:45:32.866Z,10.27
2022-09-27T10:47:01.348Z,9.30
2022-09-27T10:48:25.918Z,10.50
2022-09-27T10:49:35.705Z,10.55
2022-09-27T10:51:01.556Z,10.43
2022-09-27T10:53:21.815Z,9.30
2022-09-27T10:54:37.314Z,10.32
2022-09-27T10:55:42.645Z,10.73
2022-09-27T10:56:45.813Z,10.98
2022-09-27T10:57:55.222Z,11.57
2022-09-27T10:59:00.198Z,10.95
2022-09-27T11:00:20.774Z,10.60
2022-09-27T11:01:24.697Z,10.45
2022-09-27T11:02:57.748Z,11.35
2022-09-27T11:04:05.033Z,10.00
2022-09-27T11:05:31.615Z,10.63
2022-09-27T11:06:38.493Z,10.48
2022-09-27T11:07:59.473Z,10.15
2022-09-27T11:09:26.674Z,10.85
2022-09-27T11:10:38.027Z,11.30
2022-09-27T11:11:45.289Z,11.05
2022-09-27T11:13:19.926Z,11.50
2022-09-27T11:14:31.777Z,10.27
2022-09-27T11:15:44.152Z,10.15
2022-09-27T11:17:11.352Z,10.07
2022-09-27T11:19:01.333Z,10.27
2022-09-27T11:20:43.418Z,10.88
2022-09-27T11:22:13.598Z,11.80
2022-09-27T11:23:49.807Z,10.93
2022-09-27T11:25:31.980Z,10.93
2022-09-27T11:26:54.071Z,10.50
2022-09-27T11:28:15.782Z,10.90
2022-09-27T11:29:54.025Z,10.65
2022-09-27T11:31:34.511Z,11.15
2022-09-27T11:33:00.761Z,11.27
2022-09-27T11:34:46.974Z,10.93
2022-09-27T11:36:29.171Z,10.00
2022-09-27T11:37:50.525Z,10.73
2022-09-27T11:39:52.428Z,10.82
2022-09-27T11:41:13.737Z,10.20
2022-09-27T11:43:22.534Z,11.38
2022-09-27T11:44:38.197Z,9.95
2022-09-27T11:46:18.161Z,12.02
2022-09-27T11:47:50.885Z,11.25
2022-09-27T11:49:35.747Z,11.52
2022-09-27T11:51:03.563Z,11.15
2022-09-27T11:52:21.491Z,10.48
2022-09-27T11:53:44.055Z,10.93
2022-09-27T11:55:21.618Z,10.82
2022-09-27T11:56:36.700Z,9.85
2022-09-27T11:58:05.326Z,10.00
2022-09-27T12:00:06.285Z,11.32
2022-09-27T12:01:57.354Z,8.93
2022-09-27T12:03:09.647Z,10.30
2022-09-27T12:04:27.317Z,9.73
2022-09-27T12:05:41.425Z,10.10
2022-09-27T12:07:05.720Z,10.18
2022-09-27T12:08:35.942Z,10.13
2022-09-27T12:10:00.515Z,9.57
2022-09-27T12:11:35.914Z,9.75
2022-09-27T12:12:45.310Z,10.55
2022-09-27T12:14:09.079Z,11.13
2022-09-27T12:15:25.143Z,10.77
2022-09-27T12:16:30.611Z,10.05
2022-09-27T12:17:43.285Z,10.90
2022-09-27T12:18:51.477Z,9.57
2022-09-27T12:20:33.887Z,9.95
2022-09-27T12:21:37.341Z,10.38
2022-09-27T12:23:13.550Z,10.57
2022-09-27T12:24:31.047Z,10.75
2022-09-27T12:25:48.302Z,9.10
2022-09-27T12:27:14.393Z,10.02
2022-09-27T12:28:39.483Z,10.17
2022-09-27T12:29:45.323Z,9.93
2022-09-27T12:32:33.512Z,10.35
2022-09-27T12:34:02.105Z,10.68
2022-09-27T12:35:17.316Z,10.55
2022-09-27T12:36:29.303Z,9.77
2022-09-27T12:37:38.911Z,9.85
2022-09-27T12:38:56.423Z,10.65
2022-09-27T12:40:31.303Z,9.98
2022-09-27T12:41:44.250Z,11.07
2022-09-27T12:43:24.017Z,10.48
2022-09-27T12:44:41.388Z,11.20
2022-09-27T12:46:24.544Z,10.82
2022-09-27T12:47:52.535Z,10.35
2022-09-27T12:49:09.347Z,10.63
2022-09-27T12:50:48.040Z,10.60
2022-09-27T12:52:12.054Z,11.45
2022-09-27T12:53:32.810Z,11.30
2022-09-27T12:55:01.708Z,11.48
2022-09-27T12:56:19.902Z,10.98
2022-09-27T12:58:19.829Z,10.48
2022-09-27T13:00:00.863Z,9.68
2022-09-27T13:02:12.539Z,10.30
2022-09-27T13:03:41.353Z,10.18
2022-09-27T13:06:47.664Z,9.80
2022-09-27T13:08:34.423Z,11.50
2022-09-27T13:10:26.344Z,10.23
2022-09-27T13:12:10.946Z,10.43
2022-09-27T13:13:21.303Z,9.93
2022-09-27T13:14:35.230Z,9.90
2022-09-27T13:15:40.133Z,10.18
2022-09-27T13:16:48.100Z,11.68
2022-09-27T13:18:00.005Z,11.23
2022-09-27T13:19:42.722Z,11.10
2022-09-27T13:20:49.618Z,10.82
2022-09-27T13:22:37.943Z,10.43
2022-09-27T13:24:41.394Z,10.18
2022-09-27T13:26:01.105Z,9.75
2022-09-27T13:27:30.216Z,10.15
2022-09-27T13:28:55.016Z,11.25
2022-09-27T13:30:13.116Z,10.50
2022-09-27T13:31:54.814Z,10.05
2022-09-27T13:33:14.147Z,9.77
2022-09-27T13:34:45.524Z,9.15
2022-09-27T13:36:21.680Z,10.32
2022-09-27T13:37:45.824Z,10.20
2022-09-27T13:39:05.146Z,9.40
2022-09-27T13:40:16.661Z,9.60
2022-09-27T13:42:15.450Z,9.38
2022-09-27T13:43:51.332Z,9.68
2022-09-27T13:45:31.533Z,10.18
2022-09-27T13:46:37.004Z,9.55
2022-09-27T13:47:47.324Z,9.88
2022-09-27T13:48:58.336Z,8.85
2022-09-27T13:50:39.152Z,9.90
2022-09-27T13:51:53.475Z,9.80
2022-09-27T13:53:09.262Z,8.80
2022-09-27T13:54:54.345Z,9.98
2022-09-27T13:56:01.994Z,9.77
2022-09-27T13:57:58.070Z,10.38
2022-09-27T13:59:08.721Z,11.10
2022-09-27T14:00:34.684Z,9.90
2022-09-27T14:01:46.948Z,9.40
2022-09-27T14:03:07.065Z,8.95
2022-09-27T14:05:35.823Z,8.50
2022-09-27T14:06:48.596Z,8.98
2022-09-27T14:07:53.421Z,9.27
2022-09-27T14:09:02.807Z,9.05
2022-09-27T14:10:12.045Z,7.80
2022-09-27T14:11:25.705Z,7.88
2022-09-27T14:12:38.697Z,7.82
2022-09-27T14:13:46.853Z,9.20
2022-09-27T14:14:51.419Z,8.30
2022-09-27T14:15:57.142Z,8.40
2022-09-27T14:17:02.040Z,8.27
2022-09-27T14:18:10.693Z,8.25
2022-09-27T14:19:20.560Z,7.93
2022-09-27T14:20:41.920Z,9.07
2022-09-27T14:22:16.080Z,7.90
2022-09-27T14:23:37.456Z,7.32
2022-09-27T14:24:40.942Z,7.35
2022-09-27T14:25:57.802Z,8.15
2022-09-27T14:27:11.435Z,8.25
2022-09-27T14:28:30.734Z,7.47
2022-09-27T14:30:02.453Z,7.57
2022-09-27T14:31:20.011Z,8.18
2022-09-27T14:32:34.855Z,7.72
2022-09-27T14:33:41.142Z,7.50
2022-09-27T14:35:42.687Z,6.63
2022-09-27T14:37:04.267Z,7.20
2022-09-27T14:38:37.582Z,7.20
2022-09-27T14:39:53.458Z,7.00
2022-09-27T14:41:08.900Z,6.75
2022-09-27T14:42:21.966Z,7.85
2022-09-27T14:43:25.990Z,7.07
2022-09-27T14:44:30.831Z,6.32
2022-09-27T14:45:40.559Z,6.25
2022-09-27T14:46:43.719Z,6.77
2022-09-27T14:47:49.663Z,7.68
2022-09-27T14:48:53.255Z,7.10
2022-09-27T14:50:00.074Z,7.43
2022-09-27T14:51:19.658Z,6.18
2022-09-27T14:52:35.594Z,6.00
2022-09-27T14:53:46.927Z,6.35
2022-09-27T14:55:00.781Z,7.25
2022-09-27T14:56:04.738Z,6.47
2022-09-27T14:57:07.736Z,6.80
2022-09-27T14:58:35.742Z,7.20
2022-09-27T14:59:46.192Z,6.22
2022-09-27T15:00:50.257Z,6.70
2022-09-27T15:01:54.569Z,6.32
2022-09-27T15:02:59.893Z,7.05
2022-09-27T15:04:15.258Z,6.25
2022-09-27T15:05:20.721Z,6.80
2022-09-27T15:06:25.055Z,6.45
2022-09-27T15:07:28.226Z,6.57
2022-09-27T15:08:33.599Z,7.30
2022-09-27T15:09:37.040Z,6.40
2022-09-27T15:10:40.658Z,6.68
2022-09-27T15:11:49.590Z,6.45
2022-09-27T15:12:58.033Z,6.18
2022-09-27T15:14:03.967Z,6.25
2022-09-27T15:15:07.859Z,5.85
2022-09-27T15:16:18.289Z,6.82
2022-09-27T15:17:22.425Z,6.65
2022-09-27T15:18:38.349Z,6.93
2022-09-27T15:20:01.549Z,7.18
2022-09-27T15:21:06.709Z,6.70
2022-09-27T15:22:46.945Z,7.05
2022-09-27T15:23:49.990Z,6.77
2022-09-27T15:24:52.853Z,6.85
2022-09-27T15:26:16.078Z,7.40
2022-09-27T15:27:24.142Z,6.50
2022-09-27T15:28:28.059Z,6.13
2022-09-27T15:29:32.246Z,6.53
2022-09-27T15:30:41.605Z,7.22
2022-09-27T15:31:44.717Z,6.53
2022-09-27T15:32:53.974Z,6.32
2022-09-27T15:33:58.486Z,6.32
2022-09-27T15:35:08.456Z,6.93
2022-09-27T15:36:15.598Z,6.15
2022-09-27T15:37:38.770Z,6.63
2022-09-27T15:38:47.577Z,6.88
2022-09-27T15:39:51.145Z,5.97
2022-09-27T15:41:01.192Z,5.85
2022-09-27T15:42:17.386Z,5.97
2022-09-27T15:43:31.569Z,6.15
2022-09-27T15:44:47.917Z,5.93
2022-09-27T15:45:53.151Z,6.20
2022-09-27T15:46:56.110Z,6.10
2022-09-27T15:48:14.286Z,5.95
2022-09-27T15:49:36.049Z,6.55
2022-09-27T15:50:39.750Z,6.53
2022-09-27T15:51:51.994Z,6.50
2022-09-27T15:52:58.969Z,7.10
2022-09-27T15:54:01.868Z,6.43
2022-09-27T15:55:04.915Z,6.15
2022-09-27T15:56:10.642Z,6.45
2022-09-27T15:57:13.501Z,6.65
2022-09-27T15:58:22.436Z,6.78
2022-09-27T15:59:34.007Z,7.57
2022-09-27T16:00:37.242Z,6.90
2022-09-27T16:01:40.336Z,7.10
2022-09-27T16:02:43.993Z,8.20
2022-09-27T16:03:47.324Z,6.78
2022-09-27T16:04:50.386Z,6.68
2022-09-27T16:05:56.501Z,7.65
2022-09-27T16:07:02.073Z,7.10
2022-09-27T16:08:05.185Z,7.35
2022-09-27T16:09:18.956Z,7.95
2022-09-27T16:10:30.561Z,8.10
2022-09-27T16:11:33.489Z,7.68
2022-09-27T16:12:36.448Z,8.20
2022-09-27T16:13:39.392Z,8.25
2022-09-27T16:14:42.510Z,8.35
2022-09-27T16:15:46.716Z,8.63
2022-09-27T16:16:59.206Z,7.90
2022-09-27T16:18:02.330Z,8.70
2022-09-27T16:19:05.566Z,8.75
2022-09-27T16:20:25.155Z,9.38
2022-09-27T16:21:28.104Z,8.05
2022-09-27T16:22:31.177Z,8.25
2022-09-27T16:23:34.172Z,8.10
2022-09-27T16:24:37.245Z,8.85
2022-09-27T16:25:40.629Z,8.32
2022-09-27T16:26:43.938Z,6.95
2022-09-27T16:27:47.600Z,8.13